createdAt,value
2023-01-11T00:01:16.939Z,99083.88
2023-01-11T00:03:46.492Z,99094.75
2023-01-11T00:06:16.191Z,99076.34
2023-01-11T00:08:46.172Z,99082.25
2023-01-11T00:11:17.497Z,99086.38
2023-01-11T00:13:49.840Z,99074.94
2023-01-11T00:16:19.858Z,99066.44
2023-01-11T00:18:49.424Z,99061.47
2023-01-11T00:21:19.007Z,99061.34
2023-01-11T00:23:51.915Z,99064.50
2023-01-11T00:26:21.624Z,99046.56
2023-01-11T00:28:53.819Z,99035.16
2023-01-11T00:31:23.603Z,99027.09
2023-01-11T00:33:53.271Z,99026.63
2023-01-11T00:36:22.996Z,99025.22
2023-01-11T00:38:55.464Z,99017.91
2023-01-11T00:41:47.053Z,99002.28
2023-01-11T00:44:31.719Z,99001.94
2023-01-11T00:47:14.001Z,99010.69
2023-01-11T00:49:43.807Z,99008.31
2023-01-11T00:52:13.480Z,99001.84
2023-01-11T00:54:44.472Z,98992.13
2023-01-11T00:57:14.009Z,98992.63
2023-01-11T00:59:46.185Z,99012.69
2023-01-11T01:02:15.976Z,99003.00
2023-01-11T01:04:46.143Z,99024.69
2023-01-11T01:07:15.850Z,99045.59
2023-01-11T01:09:45.415Z,99070.50
2023-01-11T01:12:34.941Z,99047.44
2023-01-11T01:15:05.168Z,99062.09
2023-01-11T01:17:34.680Z,99048.41
2023-01-11T01:20:04.224Z,99036.34
2023-01-11T01:22:33.811Z,99034.69
2023-01-11T01:25:03.416Z,99034.31
2023-01-11T01:27:34.231Z,99028.88
2023-01-11T01:30:03.812Z,99028.38
2023-01-11T01:32:36.003Z,99022.56
2023-01-11T01:35:05.528Z,99031.38
2023-01-11T01:37:35.139Z,99031.88
2023-01-11T01:40:04.796Z,99035.53
2023-01-11T01:42:34.370Z,99051.75
2023-01-11T01:45:07.061Z,99044.44
2023-01-11T01:47:47.404Z,99033.72
2023-01-11T01:50:20.692Z,99029.50
2023-01-11T01:52:54.323Z,99014.34
2023-01-11T01:55:29.907Z,99012.63
2023-01-11T01:58:01.456Z,99007.38
2023-01-11T02:00:31.099Z,98995.91
2023-01-11T02:03:04.298Z,98972.28
2023-01-11T02:05:34.159Z,99003.91
2023-01-11T02:08:11.036Z,99007.03
2023-01-11T02:10:40.947Z,99015.09
2023-01-11T02:13:14.467Z,99009.75
2023-01-11T02:15:44.164Z,98987.91
2023-01-11T02:18:18.679Z,98989.56
2023-01-11T02:21:08.101Z,99001.13
2023-01-11T02:24:15.764Z,98990.16
2023-01-11T02:27:12.025Z,98999.78
2023-01-11T02:29:54.006Z,98981.09
2023-01-11T02:32:33.380Z,98992.06
2023-01-11T02:35:14.761Z,98978.97
2023-01-11T02:37:54.083Z,98971.88
2023-01-11T02:40:30.744Z,98967.69
2023-01-11T02:43:27.139Z,98968.91
2023-01-11T02:46:04.809Z,98959.66
2023-01-11T02:48:38.306Z,98945.09
2023-01-11T02:51:14.149Z,98951.50
2023-01-11T02:53:48.616Z,98942.63
2023-01-11T02:56:23.310Z,98928.34
2023-01-11T02:58:56.997Z,98932.25
2023-01-11T03:01:29.464Z,98910.75
2023-01-11T03:03:59.101Z,98899.94
2023-01-11T03:06:31.263Z,98928.94
2023-01-11T03:09:21.917Z,98888.59
2023-01-11T03:12:17.755Z,98915.59
2023-01-11T03:14:55.890Z,98926.00
2023-01-11T03:17:44.232Z,98933.56
2023-01-11T03:20:23.369Z,98923.38
2023-01-11T03:23:06.806Z,98921.53
2023-01-11T03:25:46.612Z,98903.59
2023-01-11T03:28:24.849Z,98904.72
2023-01-11T03:31:04.216Z,98910.78
2023-01-11T03:33:44.536Z,98912.50
2023-01-11T03:36:24.619Z,98928.09
2023-01-11T03:38:58.540Z,98924.78
2023-01-11T03:41:32.048Z,98905.94
2023-01-11T03:44:04.277Z,98899.84
2023-01-11T03:46:37.379Z,98901.72
2023-01-11T03:49:13.663Z,98907.53
2023-01-11T03:51:46.534Z,98910.25
2023-01-11T03:54:19.683Z,98903.09
2023-01-11T03:56:59.191Z,98894.25
2023-01-11T03:59:29.108Z,98886.66
2023-01-11T04:01:59.642Z,98869.31
2023-01-11T04:04:31.961Z,98877.59
2023-01-11T04:07:01.617Z,98864.75
2023-01-11T04:09:31.244Z,98865.28
2023-01-11T04:12:00.760Z,98860.81
2023-01-11T04:14:30.379Z,98861.78
2023-01-11T04:16:59.914Z,98865.72
2023-01-11T04:19:32.102Z,98851.75
2023-01-11T04:22:01.731Z,98855.97
2023-01-11T04:24:31.357Z,98858.75
2023-01-11T04:27:00.906Z,98846.44
2023-01-11T04:29:30.507Z,98845.72
2023-01-11T04:32:00.238Z,98832.16
2023-01-11T04:34:32.332Z,98828.06
2023-01-11T04:37:01.896Z,98818.34
2023-01-11T04:39:31.442Z,98806.69
2023-01-11T04:42:13.567Z,98801.25
2023-01-11T04:44:43.152Z,98811.53
2023-01-11T04:47:12.713Z,98815.06
2023-01-11T04:49:45.110Z,98816.75
2023-01-11T04:52:16.182Z,98842.66
2023-01-11T04:54:47.251Z,98825.19
2023-01-11T04:57:18.511Z,98833.09
2023-01-11T04:59:48.306Z,98834.22
2023-01-11T05:02:18.588Z,98822.97
2023-01-11T05:04:51.143Z,98824.31
2023-01-11T05:07:20.694Z,98818.13
2023-01-11T05:09:50.239Z,98822.81
2023-01-11T05:12:19.777Z,98821.22
2023-01-11T05:14:49.346Z,98811.81
2023-01-11T05:17:19.662Z,98805.66
2023-01-11T05:19:51.767Z,98802.38
2023-01-11T05:22:21.290Z,98822.31
2023-01-11T05:24:50.899Z,98830.88
2023-01-11T05:27:20.439Z,98853.13
2023-01-11T05:29:50.071Z,98846.41
2023-01-11T05:32:19.673Z,98852.72
2023-01-11T05:34:51.780Z,98819.75
2023-01-11T05:37:21.340Z,98806.72
2023-01-11T05:39:50.871Z,98811.06
2023-01-11T05:42:21.620Z,98822.66
2023-01-11T05:45:04.317Z,98812.53
2023-01-11T05:47:33.858Z,98816.94
2023-01-11T05:50:06.434Z,98802.34
2023-01-11T05:52:36.026Z,98807.38
2023-01-11T05:55:05.678Z,98799.97
2023-01-11T05:57:35.215Z,98792.00
2023-01-11T06:00:05.116Z,98796.16
2023-01-11T06:02:37.580Z,98799.41
2023-01-11T06:05:11.507Z,98794.25
2023-01-11T06:07:41.072Z,98777.88
2023-01-11T06:10:12.297Z,98756.03
2023-01-11T06:12:42.156Z,98763.28
2023-01-11T06:15:12.605Z,98760.94
2023-01-11T06:17:42.223Z,98758.22
2023-01-11T06:20:15.236Z,98758.56
2023-01-11T06:22:44.812Z,98772.38
2023-01-11T06:25:14.354Z,98764.22
2023-01-11T06:27:43.879Z,98765.84
2023-01-11T06:30:15.007Z,98759.63
2023-01-11T06:32:44.592Z,98756.09
2023-01-11T06:35:16.928Z,98757.22
2023-01-11T06:37:46.634Z,98752.84
2023-01-11T06:40:16.317Z,98740.91
2023-01-11T06:42:45.894Z,98759.28
2023-01-11T06:45:15.477Z,98747.28
2023-01-11T06:47:45.046Z,98750.28
2023-01-11T06:50:17.843Z,98750.53
2023-01-11T06:52:55.328Z,98742.69
2023-01-11T06:55:25.703Z,98740.00
2023-01-11T06:57:56.278Z,98744.06
2023-01-11T07:00:26.614Z,98741.66
2023-01-11T07:02:56.171Z,98745.22
2023-01-11T07:05:28.303Z,98747.13
2023-01-11T07:07:57.886Z,98749.56
2023-01-11T07:10:27.477Z,98752.91
2023-01-11T07:12:57.037Z,98757.53
2023-01-11T07:15:26.713Z,98765.19
2023-01-11T07:17:57.286Z,98761.38
2023-01-11T07:20:30.311Z,98751.00
2023-01-11T07:23:01.667Z,98743.69
2023-01-11T07:25:32.106Z,98740.63
2023-01-11T07:28:03.064Z,98748.25
2023-01-11T07:30:44.585Z,98753.72
2023-01-11T07:33:21.799Z,98754.81
2023-01-11T07:35:54.088Z,98747.78
2023-01-11T07:38:24.296Z,98746.38
2023-01-11T07:40:53.981Z,98746.06
2023-01-11T07:43:23.583Z,98745.00
2023-01-11T07:45:54.972Z,98756.72
2023-01-11T07:48:27.864Z,98743.34
2023-01-11T07:51:00.023Z,98751.28
2023-01-11T07:53:29.747Z,98751.50
2023-01-11T07:55:59.328Z,98745.75
2023-01-11T07:58:28.928Z,98755.03
2023-01-11T08:01:01.546Z,98748.56
2023-01-11T08:03:31.191Z,98749.13
2023-01-11T08:06:03.424Z,98753.19
2023-01-11T08:08:32.992Z,98763.53
2023-01-11T08:11:15.111Z,98773.13
2023-01-11T08:13:57.187Z,98782.06
2023-01-11T08:16:27.441Z,98789.19
2023-01-11T08:18:57.112Z,98778.03
2023-01-11T08:21:29.246Z,98788.09
2023-01-11T08:23:59.630Z,98797.97
2023-01-11T08:26:30.560Z,98806.19
2023-01-11T08:29:00.076Z,98803.19
2023-01-11T08:31:30.242Z,98808.94
2023-01-11T08:33:59.760Z,98815.44
2023-01-11T08:36:32.380Z,98807.00
2023-01-11T08:39:02.482Z,98814.59
2023-01-11T08:41:32.712Z,98797.72
2023-01-11T08:44:02.690Z,98806.19
2023-01-11T08:46:34.158Z,98795.53
2023-01-11T08:49:03.905Z,98788.75
2023-01-11T08:51:37.214Z,98783.00
2023-01-11T08:54:07.635Z,98780.56
2023-01-11T08:56:37.288Z,98784.41
2023-01-11T08:59:07.451Z,98787.13
2023-01-11T09:01:37.119Z,98780.28
2023-01-11T09:04:23.079Z,98782.75
2023-01-11T09:06:56.199Z,98782.19
2023-01-11T09:09:25.927Z,98781.94
2023-01-11T09:12:00.377Z,98782.22
2023-01-11T09:14:31.510Z,98798.88
2023-01-11T09:17:01.146Z,98801.63
2023-01-11T09:19:30.890Z,98798.63
2023-01-11T09:22:03.509Z,98796.97
2023-01-11T09:24:33.153Z,98806.81
2023-01-11T09:27:04.912Z,98803.53
2023-01-11T09:29:37.155Z,98806.28
2023-01-11T09:32:07.625Z,98801.63
2023-01-11T09:34:37.212Z,98799.16
2023-01-11T09:37:09.574Z,98813.06
2023-01-11T09:39:39.940Z,98801.88
2023-01-11T09:42:32.461Z,98802.19
2023-01-11T09:45:11.109Z,98808.47
2023-01-11T09:47:44.302Z,98807.41
2023-01-11T09:50:19.837Z,98799.75
2023-01-11T09:52:54.433Z,98794.84
2023-01-11T09:55:33.065Z,98800.56
2023-01-11T09:58:21.819Z,98800.81
2023-01-11T10:01:01.465Z,98808.72
2023-01-11T10:04:00.157Z,98812.78
2023-01-11T10:06:35.970Z,98815.25
2023-01-11T10:18:32.234Z,98807.91
2023-01-11T10:19:12.318Z,98813.41
2023-01-11T10:21:25.185Z,98815.59
2023-01-11T10:24:01.372Z,98826.78
2023-01-11T10:26:40.181Z,98816.94
2023-01-11T10:29:30.210Z,98813.38
2023-01-11T10:32:14.861Z,98811.75
2023-01-11T10:35:14.394Z,98807.09
2023-01-11T10:37:59.721Z,98812.56
2023-01-11T10:40:39.905Z,98812.28
2023-01-11T10:43:22.642Z,98807.38
2023-01-11T10:45:55.955Z,98808.44
2023-01-11T10:48:32.869Z,98814.50
2023-01-11T10:51:08.986Z,98815.84
2023-01-11T10:53:43.851Z,98816.09
2023-01-11T10:56:25.364Z,98824.00
2023-01-11T10:59:22.134Z,98821.31
2023-01-11T11:02:02.761Z,98822.94
2023-01-11T11:04:48.931Z,98812.88
2023-01-11T11:07:25.827Z,98829.78
2023-01-11T11:10:04.866Z,98828.72
2023-01-11T11:12:39.199Z,98828.19
2023-01-11T11:15:18.854Z,98826.00
2023-01-11T11:17:52.044Z,98825.16
2023-01-11T11:20:23.278Z,98823.56
2023-01-11T11:22:54.978Z,98819.72
2023-01-11T11:25:31.502Z,98826.28
2023-01-11T11:28:05.105Z,98820.53
2023-01-11T11:30:40.587Z,98814.81
2023-01-11T11:33:16.969Z,98811.78
2023-01-11T11:35:47.832Z,98812.34
2023-01-11T11:38:25.523Z,98806.88
2023-01-11T11:41:06.860Z,98794.84
2023-01-11T11:43:37.990Z,98797.06
2023-01-11T11:46:26.941Z,98802.50
2023-01-11T11:49:15.174Z,98810.16
2023-01-11T11:51:47.715Z,98808.78
2023-01-11T11:54:23.897Z,98800.31
2023-01-11T11:56:53.742Z,98800.31
2023-01-11T11:59:25.290Z,98800.34
2023-01-11T12:02:04.613Z,98787.72
2023-01-11T12:04:45.038Z,98772.94
2023-01-11T12:07:17.641Z,98774.63
2023-01-11T12:09:50.291Z,98774.63
2023-01-11T12:12:25.935Z,98777.63
2023-01-11T12:15:21.891Z,98773.81
2023-01-11T12:17:54.579Z,98772.41
2023-01-11T12:20:31.728Z,98767.97
2023-01-11T12:23:29.592Z,98768.75
2023-01-11T12:26:28.361Z,98755.06
2023-01-11T12:29:32.459Z,98760.03
2023-01-11T12:32:13.948Z,98762.44
2023-01-11T12:35:21.031Z,98763.28
2023-01-11T12:38:05.205Z,98758.56
2023-01-11T12:40:39.537Z,98756.97
2023-01-11T12:43:30.298Z,98756.44
2023-01-11T12:46:11.234Z,98765.22
2023-01-11T12:48:55.444Z,98765.16
2023-01-11T12:51:39.954Z,98770.69
2023-01-11T12:54:33.569Z,98769.25
2023-01-11T12:57:14.549Z,98768.41
2023-01-11T13:00:20.203Z,98780.78
2023-01-11T13:03:11.711Z,98786.03
2023-01-11T13:05:54.744Z,98786.88
2023-01-11T13:08:37.128Z,98795.09
2023-01-11T13:11:35.016Z,98796.16
2023-01-11T13:14:21.093Z,98796.72
2023-01-11T13:17:01.223Z,98800.84
2023-01-11T13:19:38.602Z,98802.47
2023-01-11T13:22:14.333Z,98804.13
2023-01-11T13:24:50.490Z,98801.66
2023-01-11T13:27:24.599Z,98808.50
2023-01-11T13:29:56.862Z,98812.63
2023-01-11T13:32:30.379Z,98811.81
2023-01-11T13:35:04.716Z,98816.72
2023-01-11T13:37:40.064Z,98824.66
2023-01-11T13:40:21.271Z,98827.13
2023-01-11T13:42:54.765Z,98824.09
2023-01-11T13:45:29.154Z,98815.06
2023-01-11T13:48:04.279Z,98818.38
2023-01-11T13:50:39.194Z,98821.63
2023-01-11T13:53:17.685Z,98823.84
2023-01-11T13:56:03.686Z,98833.66
2023-01-11T13:58:38.011Z,98836.41
2023-01-11T14:01:12.412Z,98840.25
2023-01-11T14:03:51.328Z,98847.06
2023-01-11T14:06:37.009Z,98852.25
2023-01-11T14:09:21.252Z,98853.88
2023-01-11T14:12:01.121Z,98864.28
2023-01-11T14:14:49.001Z,98871.38
2023-01-11T14:17:44.681Z,98880.16
2023-01-11T14:20:28.997Z,98878.78
2023-01-11T14:23:07.733Z,98881.22
2023-01-11T14:25:44.605Z,98880.41
2023-01-11T14:28:38.888Z,98881.22
2023-01-11T14:31:23.163Z,98872.50
2023-01-11T14:34:23.227Z,98865.69
2023-01-11T14:37:28.132Z,98882.91
2023-01-11T14:40:25.489Z,98880.66
2023-01-11T14:43:27.669Z,98877.38
2023-01-11T14:46:26.474Z,98875.75
2023-01-11T14:49:04.941Z,98883.13
2023-01-11T14:51:42.443Z,98889.19
2023-01-11T14:54:16.520Z,98892.97
2023-01-11T14:56:57.560Z,98878.47
2023-01-11T14:59:36.516Z,98890.78
2023-01-11T15:02:33.273Z,98891.03
2023-01-11T15:05:13.382Z,98899.78
2023-01-11T15:07:44.994Z,98916.97
2023-01-11T15:10:56.458Z,98912.88
2023-01-11T15:13:28.034Z,98920.78
2023-01-11T15:16:25.804Z,98930.56
2023-01-11T15:18:58.790Z,98928.66
2023-01-11T15:21:29.868Z,98946.13
2023-01-11T15:24:01.105Z,98945.56
2023-01-11T15:26:30.698Z,98951.03
2023-01-11T15:29:02.433Z,98955.09
2023-01-11T15:31:38.972Z,98959.13
2023-01-11T15:34:27.011Z,98959.13
2023-01-11T15:37:11.499Z,98960.25
2023-01-11T15:39:48.007Z,98972.78
2023-01-11T15:42:57.023Z,98973.34
2023-01-11T15:46:15.714Z,98985.88
2023-01-11T15:49:01.587Z,98987.25
2023-01-11T15:51:59.668Z,98996.44
2023-01-11T15:55:14.410Z,99004.63
2023-01-11T15:58:09.435Z,99000.66
2023-01-11T16:00:57.463Z,99004.38
2023-01-11T16:03:56.123Z,99010.56
2023-01-11T16:06:35.063Z,99016.03
2023-01-11T16:09:28.087Z,99019.50
2023-01-11T16:12:06.428Z,99037.19
2023-01-11T16:15:08.603Z,99034.00
2023-01-11T16:17:42.381Z,99044.19
2023-01-11T16:20:27.920Z,99044.47
2023-01-11T16:22:59.614Z,99047.56
2023-01-11T16:25:35.405Z,99044.44
2023-01-11T16:28:06.069Z,99048.09
2023-01-11T16:30:36.758Z,99055.94
2023-01-11T16:33:22.958Z,99068.44
2023-01-11T16:35:52.731Z,99068.69
2023-01-11T16:38:25.870Z,99076.78
2023-01-11T16:40:58.514Z,99076.38
2023-01-11T16:43:30.650Z,99080.50
2023-01-11T16:46:00.372Z,99079.66
2023-01-11T16:48:32.118Z,99083.78
2023-01-11T16:51:04.830Z,99076.09
2023-01-11T16:53:36.330Z,99077.13
2023-01-11T16:56:12.274Z,99080.31
2023-01-11T16:58:43.133Z,99084.94
2023-01-11T17:01:15.789Z,99095.56
2023-01-11T17:03:51.788Z,99079.59
2023-01-11T17:06:23.377Z,99078.78
2023-01-11T17:08:54.484Z,99089.31
2023-01-11T17:11:31.475Z,99088.50
2023-01-11T17:14:23.535Z,99090.13
2023-01-11T17:16:59.178Z,99091.03
2023-01-11T17:19:29.547Z,99092.41
2023-01-11T17:22:04.665Z,99089.19
2023-01-11T17:24:39.215Z,99095.13
2023-01-11T17:27:20.620Z,99087.34
2023-01-11T17:29:51.086Z,99101.03
2023-01-11T17:32:26.041Z,99095.75
2023-01-11T17:34:56.019Z,99089.47
2023-01-11T17:37:26.168Z,99089.91
2023-01-11T17:39:56.189Z,99086.41
2023-01-11T17:42:41.302Z,99092.41
2023-01-11T17:45:21.786Z,99099.38
2023-01-11T17:47:53.109Z,99103.06
2023-01-11T17:50:29.645Z,99099.09
2023-01-11T17:53:16.716Z,99115.75
2023-01-11T17:55:54.428Z,99120.06
2023-01-11T17:58:30.536Z,99116.75
2023-01-11T18:01:18.272Z,99132.69
2023-01-11T18:03:49.235Z,99125.66
2023-01-11T18:06:26.275Z,99127.66
2023-01-11T18:08:57.451Z,99138.19
2023-01-11T18:11:29.577Z,99135.53
2023-01-11T18:14:04.652Z,99145.22
2023-01-11T18:16:34.835Z,99144.97
2023-01-11T18:19:25.713Z,99138.13
2023-01-11T18:21:56.523Z,99147.81
2023-01-11T18:24:43.581Z,99151.16
2023-01-11T18:27:30.889Z,99150.59
2023-01-11T18:30:06.597Z,99150.41
2023-01-11T18:32:40.524Z,99151.56
2023-01-11T18:35:19.052Z,99151.63
2023-01-11T18:37:49.142Z,99146.16
2023-01-11T18:40:21.465Z,99149.09
2023-01-11T18:42:54.107Z,99142.81
2023-01-11T18:45:26.269Z,99154.94
2023-01-11T18:47:55.817Z,99155.78
2023-01-11T18:50:25.952Z,99159.38
2023-01-11T18:52:55.539Z,99161.56
2023-01-11T18:55:25.434Z,99154.66
2023-01-11T18:57:57.464Z,99161.09
2023-01-11T19:00:30.482Z,99169.31
2023-01-11T19:03:00.665Z,99169.03
2023-01-11T19:05:30.409Z,99175.78
2023-01-11T19:07:59.984Z,99181.72
2023-01-11T19:10:29.558Z,99181.44
2023-01-11T19:13:01.595Z,99188.16
2023-01-11T19:15:36.742Z,99182.03
2023-01-11T19:18:06.943Z,99185.78
2023-01-11T19:20:37.026Z,99188.34
2023-01-11T19:23:06.645Z,99177.03
2023-01-11T19:25:36.214Z,99177.44
2023-01-11T19:28:06.803Z,99169.78
2023-01-11T19:30:41.253Z,99168.88
2023-01-11T19:33:10.898Z,99163.91
2023-01-11T19:35:43.290Z,99159.44
2023-01-11T19:38:12.910Z,99153.34
2023-01-11T19:40:42.525Z,99141.31
2023-01-11T19:43:12.173Z,99149.56
2023-01-11T19:45:44.360Z,99132.53
2023-01-11T19:48:13.959Z,99141.09
2023-01-11T19:50:43.587Z,99141.84
2023-01-11T19:53:13.171Z,99144.88
2023-01-11T19:55:42.804Z,99140.78
2023-01-11T19:58:12.620Z,99153.94
2023-01-11T20:00:45.005Z,99153.13
2023-01-11T20:03:14.537Z,99149.69
2023-01-11T20:05:44.068Z,99155.03
2023-01-11T20:08:13.638Z,99147.69
2023-01-11T20:10:43.164Z,99134.66
2023-01-11T20:13:12.709Z,99147.03
2023-01-11T20:15:45.033Z,99146.16
2023-01-11T20:18:14.626Z,99152.50
2023-01-11T20:20:44.325Z,99141.66
2023-01-11T20:23:13.886Z,99138.81
2023-01-11T20:25:43.417Z,99140.44
2023-01-11T20:28:12.953Z,99150.31
2023-01-11T20:30:46.208Z,99151.84
2023-01-11T20:33:15.809Z,99149.44
2023-01-11T20:35:45.706Z,99152.13
2023-01-11T20:38:15.722Z,99149.16
2023-01-11T20:40:45.389Z,99151.47
2023-01-11T20:43:14.899Z,99149.03
2023-01-11T20:45:56.582Z,99140.66
2023-01-11T20:48:26.122Z,99143.38
2023-01-11T20:50:55.660Z,99145.41
2023-01-11T20:53:25.242Z,99136.63
2023-01-11T20:55:54.886Z,99129.47
2023-01-11T20:58:24.721Z,99135.53
2023-01-11T21:00:56.847Z,99126.41
2023-01-11T21:03:26.857Z,99113.88
2023-01-11T21:05:56.685Z,99116.38
2023-01-11T21:08:26.353Z,99122.59
2023-01-11T21:10:57.112Z,99129.28
2023-01-11T21:13:27.050Z,99129.94
2023-01-11T21:15:59.200Z,99130.94
2023-01-11T21:18:28.750Z,99130.13
2023-01-11T21:20:58.645Z,99122.31
2023-01-11T21:23:28.213Z,99118.22
2023-01-11T21:25:57.818Z,99117.88
2023-01-11T21:28:27.653Z,99106.81
2023-01-11T21:31:06.288Z,99112.09
2023-01-11T21:33:37.459Z,99097.44
2023-01-11T21:36:09.361Z,99097.59
2023-01-11T21:38:39.495Z,99078.31
2023-01-11T21:41:10.661Z,99087.31
2023-01-11T21:43:42.439Z,99074.19
2023-01-11T21:46:15.322Z,99087.72
2023-01-11T21:48:45.028Z,99076.34
2023-01-11T21:51:16.923Z,99078.66
2023-01-11T21:53:46.565Z,99075.47
2023-01-11T21:56:16.139Z,99074.56
2023-01-11T21:58:46.296Z,99075.41
2023-01-11T22:01:19.419Z,99076.03
2023-01-11T22:03:49.100Z,99081.47
2023-01-11T22:06:19.156Z,99084.88
2023-01-11T22:08:48.871Z,99098.66
2023-01-11T22:11:20.101Z,99102.78
2023-01-11T22:13:49.628Z,99092.72
2023-01-11T22:16:21.975Z,99098.81
2023-01-11T22:18:51.514Z,99098.66
2023-01-11T22:21:22.235Z,99093.22
2023-01-11T22:23:56.067Z,99090.66
2023-01-11T22:26:26.496Z,99100.16
2023-01-11T22:29:10.670Z,99102.03
2023-01-11T22:31:44.389Z,99118.78
2023-01-11T22:34:14.950Z,99121.84
2023-01-11T22:36:45.382Z,99126.69
2023-01-11T22:39:16.386Z,99133.44
2023-01-11T22:41:46.427Z,99135.75
2023-01-11T22:44:16.773Z,99116.78
2023-01-11T22:46:49.202Z,99109.16
2023-01-11T22:49:19.736Z,99108.47
2023-01-11T22:51:49.290Z,99099.81
2023-01-11T22:54:18.849Z,99098.81
2023-01-11T22:56:48.381Z,99102.38
2023-01-11T22:59:17.960Z,99103.63
2023-01-11T23:01:52.924Z,99100.88
2023-01-11T23:04:22.518Z,99100.28
2023-01-11T23:06:52.077Z,99099.59
2023-01-11T23:09:21.809Z,99086.72
2023-01-11T23:12:03.926Z,99095.72
2023-01-11T23:14:35.216Z,99081.72
2023-01-11T23:17:08.488Z,99077.56
2023-01-11T23:19:39.753Z,99069.31
2023-01-11T23:22:10.248Z,99063.72
2023-01-11T23:24:41.145Z,99065.41
2023-01-11T23:27:10.845Z,99062.25
2023-01-11T23:29:40.461Z,99063.00
2023-01-11T23:32:12.932Z,99040.25
2023-01-11T23:34:42.514Z,99042.66
2023-01-11T23:37:12.061Z,99034.75
2023-01-11T23:39:41.621Z,99025.94
2023-01-11T23:42:25.323Z,99023.41
2023-01-11T23:44:55.076Z,99022.50
2023-01-11T23:47:26.035Z,99020.47
2023-01-11T23:49:58.025Z,99026.38
2023-01-11T23:52:29.367Z,99013.66
2023-01-11T23:54:58.957Z,99001.81
2023-01-11T23:57:29.184Z,98995.47
2023-01-11T23:59:58.767Z,98968.72
